Aldrich, Missouri
Current Conditions -  °F | °C
As of 11:52 AM on Friday 31 Oct 2014 (Local Time) from KSGF Reporting Station
Clear Clear  
Wind Chill: 36°   Ceiling: Unl
Heat Index: 45°   Visibility: 10mi
Dew Point: 26°   Wind: 23mph
Humidity: 48%   Direction: 350°N
Pressure: 30.36"   Gusts: NA
Location:  37.55°N, 93.55°W
Report Text: KSGF 311652Z 35020KT 10SM CLR 07/M03 A3036 RMK AO2 PK WND 36029/1620 SLP282 T00721033
Loading
Personal Weather Stations






























Interactive Weather Map
Tropical Storm Tracking
New forecast layout! Learn more

10-Day Weather Forecast

Advertisements
Track Severe Weather on mobile